Millenium Air

Millenium Air Since 1998



 METAR AND TAF INFORMATION
METAR FOR LIBP
ADDS - METARS form results

(0436 UTC 29 October 2020)
Data provider http://aviationweather.gov/metar/data/
 
METAR text: LIBP 290420Z AUTO 19004KT 9999 NCD 06/06 Q1018
Conditions at: LIBP (PESCARA , IT) observed 0420 UTC 29 October 2020
Temperature: 6.0°C (43°F)
Dewpoint: 6.0°C (43°F) [RH = 100%]
Pressure (altimeter): 30.06 inches Hg (1018.0 mb)
Winds: from the S (190 degrees) at 5 MPH (4 knots; 2.1 m/s)
Visibility: 6 or more miles (10+ km)
Ceiling: at least 12,000 feet AGL
Clouds: sky clear below 12,000 feet AGL
Weather: no significant weather observed at this time

METAR text: LIBP 290350Z AUTO 26004KT 9999 NCD 07/07 Q1018
Conditions at: LIBP (PESCARA , IT) observed 0350 UTC 29 October 2020
Temperature: 7.0°C (45°F)
Dewpoint: 7.0°C (45°F) [RH = 100%]
Pressure (altimeter): 30.06 inches Hg (1018.0 mb)
Winds: from the W (260 degrees) at 5 MPH (4 knots; 2.1 m/s)
Visibility: 6 or more miles (10+ km)
Ceiling: at least 12,000 feet AGL
Clouds: sky clear below 12,000 feet AGL
Weather: no significant weather observed at this time

Forecast for: LIBP (PESCARA , IT)
Text: TAF LIBP 282300Z 2900/2924 23006KT CAVOK
Forecast period: 0000 to 1000 UTC 29 October 2020
Forecast type: FROM: standard forecast or significant change
Winds: from the SW (230 degrees) at 7 MPH (6 knots; 3.1 m/s)
Visibility: 6 or more miles (10+ km)
Ceiling: unknown
Clouds: missing
Weather: NSW  (no significant weather)
Text: BECMG 2910/2912 04010KT
Forecast period: 1000 to 1600 UTC 29 October 2020
Forecast type: BECOMING: Conditions expected to become as follows by 1200 UTC 29 October 2020
Winds: from the NE (40 degrees) at 12 MPH (10 knots; 5.1 m/s)
Visibility: 6 or more miles (10+ km)
Ceiling: unknown
Clouds: missing
Weather: NSW  (no significant weather)
Text: BECMG 2916/2918 VRB05KT
Forecast period: 1600 UTC 29 October 2020 to 0000 UTC 30 October 2020
Forecast type: BECOMING: Conditions expected to become as follows by 1800 UTC 29 October 2020
Winds: variable direction winds at 6 MPH (5 knots; 2.6 m/s)
Visibility: 6 or more miles (10+ km)
Ceiling: unknown
Clouds: missing
Weather: NSW  (no significant weather)

 AIRPORT MAP

 RUNWAY INFORMATION
Runway 04 Runway length 7933 ft Runway width 148 ft
Runway elevation 46 ft Runway displaced threshold 344 ft Runway heading 38
Runway 22 Runway length 7933 ft Runway width 148 ft
Runway elevation 27 ft Runway displaced threshold 617 ft Runway heading 218

 AIRPORT FREQUENCIES
Type APP Name APP Frequency 120.05 MHZ
Type TWR Name TWR Frequency 118.45 MHZ

 AIRPORT NEAR NAVIGATION AIDS
Type VOR-DME Name Pescara Frequency 115900 KHZ